Terminal Aerodrome Forecast
Issued by NWS San Angelo, TX

Home | Current Version | Previous Version | Text Only | Print | Product List | Glossary On
Versions: 1 2 3 4 5 6 7 8 9 10 11 12
657
FTUS44 KSJT 161120
TAFSJT
TAF
KSJT 161120Z 1612/1712 VRB05KT P6SM SCT250
     FM161600 18014G22KT P6SM BKN250
     FM161900 18012G18KT P6SM VCSH OVC040
     FM170100 18008KT P6SM OVC015
     FM170700 20009KT P6SM FEW250=

USA.gov is the U.S. government's official web portal to all federal, state and local government web resources and services.